Time;durP1;ratioP1;P1;durP2;ratioP2;P2;SDS_P1;SDS_P2;PMS_P1;PMS_P2;Temp;Humidity;BMP_temperature;BMP_pressure;BME280_temperature;BME280_humidity;BME280_pressure;Samples;Min_cycle;Max_cycle;Signal;HPM_P1;HPM_P2
2021/08/06 00:00:58;;;;;;;1999.90;999.90;;;20.60;99.90;;;;;;5040401;28;20415;-82
2021/08/06 00:03:35;;;;;;;1999.90;999.90;;;20.50;99.90;;;;;;5042251;28;20463;-82
2021/08/06 00:06:28;;;;;;;1999.90;999.90;;;20.50;99.90;;;;;;5051295;22;20470;-82
2021/08/06 00:09:46;;;;;;;1999.90;999.90;;;20.50;99.90;;;;;;5057122;28;20433;-82
2021/08/06 00:12:15;;;;;;;1999.90;999.90;;;20.50;99.90;;;;;;5058931;28;20405;-82
2021/08/06 00:14:53;;;;;;;1999.90;999.90;;;20.50;99.90;;;;;;5061700;28;20833;-82
2021/08/06 00:17:56;;;;;;;1999.90;999.90;;;20.50;99.90;;;;;;5043814;28;20494;-82
2021/08/06 00:20:35;;;;;;;1999.90;999.90;;;20.60;99.90;;;;;;5062240;28;20388;-82
2021/08/06 00:23:30;;;;;;;;;;;;;;;;;;;;;
2021/08/06 00:26:21;;;;;;;1999.90;999.90;;;20.60;99.90;;;;;;5062376;28;20492;-82
2021/08/06 00:29:27;;;;;;;1999.90;999.90;;;20.50;99.90;;;;;;5061742;28;20387;-82
2021/08/06 00:32:07;;;;;;;1999.90;999.90;;;20.50;99.90;;;;;;5051260;28;20462;-82
2021/08/06 00:35:01;;;;;;;;;;;;;;;;;;;;;
2021/08/06 00:40:59;;;;;;;1999.90;999.90;;;20.50;99.90;;;;;;5012227;28;20434;-82
2021/08/06 00:43:29;;;;;;;1999.90;999.90;;;20.50;99.90;;;;;;5063029;28;20376;-82
2021/08/06 00:46:15;;;;;;;1999.90;999.90;;;20.40;99.90;;;;;;5042997;28;20412;-82
2021/08/06 00:49:13;;;;;;;1999.90;999.90;;;20.40;99.90;;;;;;5044426;28;20503;-82
2021/08/06 00:52:13;;;;;;;;;;;;;;;;;;;;;
2021/08/06 00:54:51;;;;;;;1999.90;999.90;;;20.30;99.90;;;;;;5062994;28;20496;-82
2021/08/06 01:00:38;;;;;;;1999.90;999.90;;;20.20;99.90;;;;;;5030581;28;20412;-82
2021/08/06 01:03:29;;;;;;;1999.90;999.90;;;20.20;99.90;;;;;;5045111;28;20777;-82
2021/08/06 01:06:21;;;;;;;1999.90;999.90;;;20.20;99.90;;;;;;5063340;28;20403;-82
2021/08/06 01:09:29;;;;;;;1999.90;999.90;;;20.10;99.90;;;;;;5046555;28;20412;-83
2021/08/06 01:12:32;;;;;;;1999.90;999.90;;;20.20;99.90;;;;;;5063846;28;20405;-83
2021/08/06 01:15:35;;;;;;;1999.90;999.90;;;20.10;99.90;;;;;;5064356;28;20471;-82
2021/08/06 01:18:31;;;;;;;1999.90;999.90;;;20.10;99.90;;;;;;5063776;28;20455;-83
2021/08/06 01:21:32;;;;;;;1999.90;999.90;;;20.00;99.90;;;;;;5064467;28;20408;-83
2021/08/06 01:24:34;;;;;;;1999.90;999.90;;;20.00;99.90;;;;;;5064194;28;20475;-83
2021/08/06 01:27:37;;;;;;;1999.90;999.90;;;19.90;99.90;;;;;;5063398;28;20524;-82
2021/08/06 01:30:29;;;;;;;1999.90;999.90;;;19.90;99.90;;;;;;5046196;28;20423;-83
2021/08/06 01:33:48;;;;;;;1999.90;999.90;;;19.90;99.90;;;;;;5064213;28;20412;-82
2021/08/06 01:36:54;;;;;;;;;;;;;;;;;;;;;
2021/08/06 01:39:23;;;;;;;1999.90;999.90;;;19.70;99.90;;;;;;5065236;28;20422;-83
2021/08/06 01:45:26;;;;;;;1999.90;999.90;;;19.70;99.90;;;;;;4983286;28;20403;-83
2021/08/06 01:51:10;;;;;;;1999.90;999.90;;;19.70;99.90;;;;;;5063557;28;20466;-83
2021/08/06 01:54:44;;;;;;;1999.90;999.90;;;19.70;99.90;;;;;;5043919;28;20443;-82
2021/08/06 01:56:50;;;;;;;1999.90;999.90;;;19.70;99.90;;;;;;5049959;28;20458;-83
2021/08/06 01:59:43;;;;;;;1999.90;999.90;;;19.70;99.90;;;;;;5062635;28;20392;-83
2021/08/06 02:02:24;;;;;;;1999.90;999.90;;;19.70;99.90;;;;;;5066324;28;20387;-83
2021/08/06 02:04:56;;;;;;;1999.90;999.90;;;19.80;99.90;;;;;;5066769;28;20384;-83
2021/08/06 02:07:45;;;;;;;1999.90;999.90;;;19.70;99.90;;;;;;5066970;28;20890;-83
2021/08/06 02:10:52;;;;;;;1999.90;999.90;;;19.70;99.90;;;;;;5051114;28;20422;-83
2021/08/06 02:14:02;;;;;;;;;;;;;;;;;;;;;
2021/08/06 02:20:03;;;;;;;1999.90;999.90;;;19.80;99.90;;;;;;5055849;28;20438;-82
2021/08/06 02:22:33;;;;;;;1999.90;999.90;;;19.80;99.90;;;;;;5060353;28;20446;-82
2021/08/06 02:25:02;;;;;;;1999.90;999.90;;;19.80;99.90;;;;;;5059856;28;20403;-82
2021/08/06 02:28:13;;;;;;;1999.90;999.90;;;19.90;99.90;;;;;;5059558;28;20533;-82
2021/08/06 02:30:51;;;;;;;1999.90;999.90;;;19.70;99.90;;;;;;4960220;29;20399;-82
2021/08/06 02:33:28;;;;;;;1999.90;999.90;;;19.70;99.90;;;;;;5054851;28;20420;-83
2021/08/06 02:36:06;;;;;;;1999.90;999.90;;;19.70;99.90;;;;;;5059351;28;20393;-83
2021/08/06 02:39:01;;;;;;;1999.90;999.90;;;19.70;99.90;;;;;;5059396;28;20439;-82
2021/08/06 02:41:43;;;;;;;1999.90;999.90;;;19.70;99.90;;;;;;5023582;28;20408;-82
2021/08/06 02:44:12;;;;;;;1999.90;999.90;;;19.60;99.90;;;;;;5059210;28;20413;-83
2021/08/06 02:46:51;;;;;;;1999.90;999.90;;;19.60;99.90;;;;;;5042908;28;21009;-83
2021/08/06 02:52:35;;;;;;;1999.90;999.90;;;19.60;99.90;;;;;;5051523;28;20433;-82
2021/08/06 02:55:23;;;;;;;1999.90;999.90;;;19.60;99.90;;;;;;5059826;28;20831;-83
2021/08/06 02:58:25;;;;;;;1999.90;999.90;;;19.60;99.90;;;;;;5059425;28;20457;-82
2021/08/06 03:00:53;;;;;;;1999.90;999.90;;;19.50;99.90;;;;;;5026571;28;20761;-82
2021/08/06 03:03:46;;;;;;;1999.90;999.90;;;19.60;99.90;;;;;;5040568;28;20483;-82
2021/08/06 03:06:18;;;;;;;1999.90;999.90;;;19.50;99.90;;;;;;5057562;28;20450;-82
2021/08/06 03:08:44;;;;;;;1999.90;999.90;;;19.40;99.90;;;;;;5040167;28;20962;-82
2021/08/06 03:11:12;;;;;;;1999.90;999.90;;;19.60;99.90;;;;;;5059509;28;20411;-82
2021/08/06 03:13:41;;;;;;;1999.90;999.90;;;19.60;99.90;;;;;;5061690;28;20445;-82
2021/08/06 03:16:07;;;;;;;1999.90;999.90;;;19.60;99.90;;;;;;5061161;28;20534;-82
2021/08/06 03:18:33;;;;;;;1999.90;999.90;;;19.50;99.90;;;;;;5059389;28;20465;-82
2021/08/06 03:21:10;;;;;;;1999.90;999.90;;;19.50;99.90;;;;;;5058851;28;20897;-82
2021/08/06 03:23:39;;;;;;;1999.90;999.90;;;19.40;99.90;;;;;;5059574;28;20162;-82
2021/08/06 03:26:18;;;;;;;1999.90;999.90;;;19.30;99.90;;;;;;5059250;28;20427;-82
2021/08/06 03:28:43;;;;;;;1999.90;999.90;;;19.30;99.90;;;;;;5059837;28;20418;-82
2021/08/06 03:31:21;;;;;;;1999.90;999.90;;;19.30;99.90;;;;;;5063011;28;20409;-82
2021/08/06 03:33:49;;;;;;;1999.90;999.90;;;19.30;99.90;;;;;;5059974;28;20608;-82
2021/08/06 03:36:15;;;;;;;1999.90;999.90;;;19.30;99.90;;;;;;5054664;22;20899;-79
2021/08/06 03:38:41;;;;;;;1999.90;999.90;;;19.30;99.90;;;;;;5056216;28;20474;-79
2021/08/06 03:41:06;;;;;;;1999.90;999.90;;;19.30;99.90;;;;;;5055764;28;20417;-80
2021/08/06 03:43:32;;;;;;;1999.90;999.90;;;19.30;99.90;;;;;;5055897;28;20224;-78
2021/08/06 03:45:58;;;;;;;1999.90;999.90;;;19.20;99.90;;;;;;5055566;28;20185;-78
2021/08/06 03:48:24;;;;;;;1999.90;999.90;;;19.30;99.90;;;;;;5055769;28;20234;-78
2021/08/06 03:50:49;;;;;;;1999.90;999.90;;;19.30;99.90;;;;;;5038096;28;20168;-79
2021/08/06 03:53:15;;;;;;;1999.90;999.90;;;19.30;99.90;;;;;;5055382;28;20317;-79
2021/08/06 03:55:43;;;;;;;1999.90;999.90;;;19.30;99.90;;;;;;5055753;28;20237;-79
2021/08/06 03:58:09;;;;;;;1999.90;999.90;;;19.30;99.90;;;;;;5055575;28;20183;-79
2021/08/06 04:00:40;;;;;;;1999.90;999.90;;;19.30;99.90;;;;;;5038385;28;20414;-79
2021/08/06 04:03:06;;;;;;;1999.90;999.90;;;19.30;99.90;;;;;;5055791;28;20385;-78
2021/08/06 04:05:33;;;;;;;1999.90;999.90;;;19.30;99.90;;;;;;5037431;28;20471;-79
2021/08/06 04:08:07;;;;;;;1999.90;999.90;;;19.20;99.90;;;;;;5055303;28;20472;-78
2021/08/06 04:10:33;;;;;;;1999.90;999.90;;;19.20;99.90;;;;;;5055241;28;20478;-78
2021/08/06 04:12:58;;;;;;;1999.90;999.90;;;19.30;99.90;;;;;;5037794;28;20516;-80
2021/08/06 04:15:24;;;;;;;1999.90;999.90;;;19.20;99.90;;;;;;5020873;28;20172;-79
2021/08/06 04:17:50;;;;;;;1999.90;999.90;;;19.30;99.90;;;;;;5037319;28;20248;-79
2021/08/06 04:20:16;;;;;;;1999.90;999.90;;;19.30;99.90;;;;;;5055145;28;20825;-79
2021/08/06 04:22:42;;;;;;;1999.90;999.90;;;19.20;99.90;;;;;;5036757;28;20168;-79
2021/08/06 04:25:10;;;;;;;1999.90;999.90;;;19.20;99.90;;;;;;5055100;28;20166;-78
2021/08/06 04:27:36;;;;;;;1999.90;999.90;;;19.20;99.90;;;;;;5037389;28;20968;-78
2021/08/06 04:30:02;;;;;;;1999.90;999.90;;;19.20;99.90;;;;;;5037150;28;20473;-78
2021/08/06 04:32:28;;;;;;;1999.90;999.90;;;19.10;99.90;;;;;;5037247;28;20559;-79
2021/08/06 04:34:54;;;;;;;1999.90;999.90;;;19.00;99.90;;;;;;5037318;28;20428;-78
2021/08/06 04:37:19;;;;;;;1999.90;999.90;;;19.10;99.90;;;;;;5054879;28;20194;-80
2021/08/06 04:39:45;;;;;;;1999.90;999.90;;;19.00;99.90;;;;;;5055429;28;20173;-78
2021/08/06 04:42:10;;;;;;;1999.90;999.90;;;19.00;99.90;;;;;;5037047;28;20221;-79
2021/08/06 04:44:38;;;;;;;1999.90;999.90;;;19.10;99.90;;;;;;5055128;28;20164;-79
2021/08/06 04:47:04;;;;;;;1999.90;999.90;;;19.10;99.90;;;;;;5036696;28;20200;-79
2021/08/06 04:49:30;;;;;;;1999.90;999.90;;;19.00;99.90;;;;;;5037944;28;20423;-79
2021/08/06 04:51:55;;;;;;;1999.90;999.90;;;19.00;99.90;;;;;;5054845;28;20538;-78
2021/08/06 04:54:22;;;;;;;1999.90;999.90;;;19.10;99.90;;;;;;5037221;28;20179;-79
2021/08/06 04:56:48;;;;;;;1999.90;999.90;;;19.00;99.90;;;;;;5054535;28;20199;-78
2021/08/06 04:59:14;;;;;;;1999.90;999.90;;;19.00;99.90;;;;;;5036827;28;20416;-79
2021/08/06 05:01:40;;;;;;;1999.90;999.90;;;19.10;99.90;;;;;;5036901;28;20590;-78
2021/08/06 05:04:06;;;;;;;1999.90;999.90;;;19.00;99.90;;;;;;5036860;28;20419;-79
2021/08/06 05:06:31;;;;;;;1999.90;999.90;;;19.00;99.90;;;;;;5054735;28;20188;-80
2021/08/06 05:08:57;;;;;;;1999.90;999.90;;;19.00;99.90;;;;;;5036482;28;20829;-78
2021/08/06 05:11:23;;;;;;;1999.90;999.90;;;19.00;99.90;;;;;;5054898;28;20711;-78
2021/08/06 05:13:49;;;;;;;1999.90;999.90;;;19.00;99.90;;;;;;5036670;28;20447;-80
2021/08/06 05:16:15;;;;;;;1999.90;999.90;;;19.00;99.90;;;;;;5036794;28;20212;-80
2021/08/06 05:18:40;;;;;;;1999.90;999.90;;;19.00;99.90;;;;;;5036735;28;20194;-80
2021/08/06 05:21:06;;;;;;;1999.90;999.90;;;19.10;99.90;;;;;;5036581;28;20541;-79
2021/08/06 05:23:32;;;;;;;1999.90;999.90;;;19.00;99.90;;;;;;5055603;28;20616;-79
2021/08/06 05:25:58;;;;;;;1999.90;999.90;;;19.00;99.90;;;;;;5054798;28;20632;-79
2021/08/06 05:28:25;;;;;;;1999.90;999.90;;;18.90;99.90;;;;;;5055234;28;20441;-79
2021/08/06 05:30:50;;;;;;;1999.90;999.90;;;18.90;99.90;;;;;;5054988;28;20444;-78
2021/08/06 05:33:16;;;;;;;1999.90;999.90;;;18.90;99.90;;;;;;5055171;28;20909;-79
2021/08/06 05:35:42;;;;;;;1999.90;999.90;;;18.90;99.90;;;;;;5038694;28;20184;-78
2021/08/06 05:38:08;;;;;;;1999.90;999.90;;;18.80;99.90;;;;;;5059266;28;20691;-78
2021/08/06 05:40:34;;;;;;;1999.90;999.90;;;18.70;99.90;;;;;;5058976;28;20193;-78
2021/08/06 05:42:59;;;;;;;1999.90;999.90;;;18.60;99.90;;;;;;5059507;28;20875;-79
2021/08/06 05:45:26;;;;;;;1999.90;999.90;;;18.60;99.90;;;;;;5059510;28;20401;-79
2021/08/06 05:47:54;;;;;;;1999.90;999.90;;;18.60;99.90;;;;;;5041397;28;20192;-78
2021/08/06 05:50:22;;;;;;;1999.90;999.90;;;18.70;99.90;;;;;;5059230;28;20491;-79
2021/08/06 05:52:48;;;;;;;1999.90;999.90;;;18.60;99.90;;;;;;5059479;28;20469;-79
2021/08/06 05:55:15;;;;;;;1999.90;999.90;;;18.60;99.90;;;;;;5059161;28;20892;-78
2021/08/06 05:57:41;;;;;;;1999.90;999.90;;;18.60;99.90;;;;;;5059381;28;20192;-79
2021/08/06 06:00:09;;;;;;;1999.90;999.90;;;18.60;99.90;;;;;;5041975;28;20417;-79
2021/08/06 06:02:34;;;;;;;1999.90;999.90;;;18.60;99.90;;;;;;5059370;28;20403;-79
2021/08/06 06:05:00;;;;;;;1999.90;999.90;;;18.60;99.90;;;;;;5059083;28;20427;-80
2021/08/06 06:07:26;;;;;;;1999.90;999.90;;;18.60;99.90;;;;;;5059229;28;20189;-80
2021/08/06 06:09:52;;;;;;;1999.90;999.90;;;18.70;99.90;;;;;;5059493;28;20174;-79
2021/08/06 06:12:17;;;;;;;1999.90;999.90;;;18.70;99.90;;;;;;5058111;28;20652;-80
2021/08/06 06:14:43;;;;;;;1999.90;999.90;;;18.90;99.90;;;;;;5058290;28;20172;-79
2021/08/06 06:17:11;;;;;;;1999.90;999.90;;;19.00;99.90;;;;;;5058082;28;20328;-80
2021/08/06 06:19:38;;;;;;;1999.90;999.90;;;19.00;99.90;;;;;;5040722;28;20193;-80
2021/08/06 06:22:05;;;;;;;1999.90;999.90;;;19.00;99.90;;;;;;5058726;28;20449;-80
2021/08/06 06:24:31;;;;;;;1999.90;999.90;;;19.10;99.90;;;;;;5058353;28;20465;-80
2021/08/06 06:26:57;;;;;;;1999.90;999.90;;;19.20;99.90;;;;;;5040698;28;21004;-80
2021/08/06 06:29:26;;;;;;;1999.90;999.90;;;19.20;99.90;;;;;;5058790;28;20411;-80
2021/08/06 06:31:51;;;;;;;1999.90;999.90;;;19.20;99.90;;;;;;5058768;28;20448;-80
2021/08/06 06:34:17;;;;;;;1999.90;999.90;;;19.10;99.90;;;;;;5041352;28;20784;-80
2021/08/06 06:36:43;;;;;;;1999.90;999.90;;;19.20;99.90;;;;;;5058163;28;20210;-80
2021/08/06 06:39:08;;;;;;;1999.90;999.90;;;19.20;99.90;;;;;;5058690;28;20574;-80
2021/08/06 06:41:34;;;;;;;1999.90;999.90;;;19.20;99.90;;;;;;5058540;28;20161;-80
2021/08/06 06:44:00;;;;;;;1999.90;999.90;;;19.20;99.90;;;;;;5058775;28;20247;-80
2021/08/06 06:46:26;;;;;;;1999.90;999.90;;;19.30;99.90;;;;;;5058074;28;20672;-80
2021/08/06 06:48:51;;;;;;;1999.90;999.90;;;19.30;99.90;;;;;;5058755;28;20591;-80
2021/08/06 06:51:17;;;;;;;1999.90;999.90;;;19.40;99.90;;;;;;5058494;28;20903;-80
2021/08/06 06:53:42;;;;;;;1999.90;999.90;;;19.50;99.90;;;;;;5058721;28;20675;-81
2021/08/06 06:56:08;;;;;;;1999.90;999.90;;;19.50;99.90;;;;;;5058814;28;20181;-80
2021/08/06 06:58:35;;;;;;;1999.90;999.90;;;19.60;99.90;;;;;;5058096;28;20193;-80
2021/08/06 07:01:01;;;;;;;1999.90;999.90;;;19.70;99.90;;;;;;5040178;28;20167;-80
2021/08/06 07:03:26;;;;;;;1999.90;999.90;;;19.70;99.90;;;;;;5058299;28;20393;-80
2021/08/06 07:05:52;;;;;;;1999.90;999.90;;;19.80;99.90;;;;;;5057927;28;20226;-80
2021/08/06 07:08:18;;;;;;;1999.90;999.90;;;19.80;99.90;;;;;;5058223;28;20248;-80
2021/08/06 07:10:44;;;;;;;1999.90;999.90;;;19.90;99.90;;;;;;5057442;28;20168;-80
2021/08/06 07:13:09;;;;;;;1999.90;999.90;;;20.00;99.90;;;;;;5057835;28;20756;-80
2021/08/06 07:15:35;;;;;;;1999.90;999.90;;;20.00;99.90;;;;;;5040045;28;20209;-80
2021/08/06 07:18:01;;;;;;;1999.90;999.90;;;20.00;99.90;;;;;;5057357;28;20200;-80
2021/08/06 07:20:27;;;;;;;1999.90;999.90;;;20.10;99.90;;;;;;5058005;28;20180;-80
2021/08/06 07:22:55;;;;;;;1999.90;999.90;;;20.00;99.90;;;;;;5039284;28;20171;-80
2021/08/06 07:25:21;;;;;;;1999.90;999.90;;;20.00;99.90;;;;;;5057309;28;20410;-80
2021/08/06 07:27:47;;;;;;;1999.90;999.90;;;19.90;99.90;;;;;;5057303;28;20997;-80
2021/08/06 07:30:14;;;;;;;1999.90;999.90;;;20.00;99.90;;;;;;5057467;28;20488;-80
2021/08/06 07:32:40;;;;;;;1999.90;999.90;;;20.30;99.90;;;;;;5057500;28;20679;-80
2021/08/06 07:35:06;;;;;;;1999.90;999.90;;;20.40;99.90;;;;;;5057046;28;20425;-79
2021/08/06 07:37:32;;;;;;;1999.90;999.90;;;20.30;99.90;;;;;;5038743;28;20205;-80
2021/08/06 07:39:58;;;;;;;1999.90;999.90;;;20.40;99.90;;;;;;5057036;28;20413;-80
2021/08/06 07:42:24;;;;;;;1999.90;999.90;;;20.40;99.90;;;;;;5057123;28;20488;-80
2021/08/06 07:44:50;;;;;;;1999.90;999.90;;;20.50;99.90;;;;;;5057280;28;20172;-79
2021/08/06 07:47:21;;;;;;;1999.90;999.90;;;20.50;99.90;;;;;;5056162;28;20203;-80
2021/08/06 07:49:47;;;;;;;1999.90;999.90;;;20.50;99.90;;;;;;5056446;28;20416;-80
2021/08/06 07:52:17;;;;;;;1999.90;999.90;;;20.60;99.90;;;;;;5038966;28;20462;-79
2021/08/06 07:54:43;;;;;;;1999.90;999.90;;;20.60;99.90;;;;;;5057477;28;20175;-80
2021/08/06 07:57:09;;;;;;;1999.90;999.90;;;20.70;99.90;;;;;;5038738;28;20536;-80
2021/08/06 07:59:35;;;;;;;1999.90;999.90;;;20.80;99.90;;;;;;5055867;28;20405;-80
2021/08/06 08:02:00;;;;;;;1999.90;999.90;;;20.80;99.90;;;;;;5056686;28;20436;-79
2021/08/06 08:04:26;;;;;;;1999.90;999.90;;;20.90;99.90;;;;;;5056560;28;20170;-80
2021/08/06 08:06:52;;;;;;;1999.90;999.90;;;20.80;99.90;;;;;;5038811;28;20196;-80
2021/08/06 08:09:17;;;;;;;1999.90;999.90;;;20.80;99.90;;;;;;5038922;28;20176;-79
2021/08/06 08:11:43;;;;;;;1999.90;999.90;;;20.80;99.90;;;;;;5039096;28;20287;-79
2021/08/06 08:14:09;;;;;;;1999.90;999.90;;;20.80;99.90;;;;;;5056739;28;20174;-80
2021/08/06 08:16:34;;;;;;;1999.90;999.90;;;20.70;99.90;;;;;;5056444;28;20188;-79
2021/08/06 08:19:00;;;;;;;1999.90;999.90;;;20.60;99.90;;;;;;5056105;28;20162;-80
2021/08/06 08:21:26;;;;;;;1999.90;999.90;;;20.50;99.90;;;;;;5056323;28;20164;-79
2021/08/06 08:23:52;;;;;;;1999.90;999.90;;;20.50;99.90;;;;;;5056018;28;20505;-79
2021/08/06 08:26:19;;;;;;;1999.90;999.90;;;20.50;99.90;;;;;;5056075;28;20432;-79
2021/08/06 08:28:45;;;;;;;1999.90;999.90;;;20.50;99.90;;;;;;5037743;28;20556;-79
2021/08/06 08:31:10;;;;;;;1999.90;999.90;;;20.30;99.90;;;;;;5056546;28;20415;-80
2021/08/06 08:33:36;;;;;;;1999.90;999.90;;;20.30;99.90;;;;;;5056278;28;20167;-80
2021/08/06 08:36:04;;;;;;;1999.90;999.90;;;20.30;99.90;;;;;;5038273;28;20268;-79
2021/08/06 08:38:30;;;;;;;1999.90;999.90;;;20.30;99.90;;;;;;5056307;28;20197;-80
2021/08/06 08:40:58;;;;;;;1999.90;999.90;;;20.30;99.90;;;;;;5038039;28;20415;-79
2021/08/06 08:43:24;;;;;;;1999.90;999.90;;;20.10;99.90;;;;;;5037650;28;20509;-79
2021/08/06 08:45:50;;;;;;;1999.90;999.90;;;20.30;99.90;;;;;;5037618;28;20439;-79
2021/08/06 08:48:19;;;;;;;1999.90;999.90;;;20.20;99.90;;;;;;5055564;28;20404;-79
2021/08/06 08:50:45;;;;;;;1999.90;999.90;;;20.10;99.90;;;;;;5055600;28;20422;-80
2021/08/06 08:53:11;;;;;;;1999.90;999.90;;;20.00;99.90;;;;;;5055890;28;20403;-80
2021/08/06 08:55:38;;;;;;;1999.90;999.90;;;19.90;99.90;;;;;;5055732;28;20251;-79
2021/08/06 08:58:04;;;;;;;1999.90;999.90;;;19.90;99.90;;;;;;5055614;28;20490;-78
2021/08/06 09:00:30;;;;;;;1999.90;999.90;;;19.90;99.90;;;;;;5056071;28;20869;-79
2021/08/06 09:02:56;;;;;;;1999.90;999.90;;;19.80;99.90;;;;;;5056170;28;20437;-79
2021/08/06 09:05:26;;;;;;;1999.90;999.90;;;19.90;99.90;;;;;;5055672;28;20399;-78
2021/08/06 09:07:53;;;;;;;1999.90;999.90;;;19.90;99.90;;;;;;5056057;28;20185;-79
2021/08/06 09:10:26;;;;;;;1999.90;999.90;;;20.00;99.90;;;;;;5039912;28;20407;-79
2021/08/06 09:12:59;;;;;;;1999.90;999.90;;;20.10;99.90;;;;;;5059677;28;20756;-79
2021/08/06 09:15:44;;;;;;;1999.90;999.90;;;20.30;99.90;;;;;;5059820;28;20886;-79
2021/08/06 09:18:28;;;;;;;1999.90;999.90;;;20.40;99.90;;;;;;5059349;28;20447;-79
2021/08/06 09:21:17;;;;;;;1999.90;999.90;;;20.60;99.90;;;;;;5059382;28;20403;-79
2021/08/06 09:23:49;;;;;;;1999.90;999.90;;;20.60;99.90;;;;;;5031216;28;20415;-79
2021/08/06 09:26:27;;;;;;;1999.90;999.90;;;20.80;99.90;;;;;;5059183;28;20929;-80
2021/08/06 09:29:13;;;;;;;1999.90;999.90;;;21.00;99.90;;;;;;5041511;28;20441;-79
2021/08/06 09:31:51;;;;;;;1999.90;999.90;;;21.20;99.90;;;;;;5040905;28;20495;-79
2021/08/06 09:34:21;;;;;;;1999.90;999.90;;;21.40;99.90;;;;;;5059512;28;20427;-80
2021/08/06 09:37:21;;;;;;;1999.90;999.90;;;21.50;99.90;;;;;;5082432;22;20488;-82
2021/08/06 09:39:59;;;;;;;1999.90;999.90;;;21.60;99.90;;;;;;5048943;28;20510;-82
2021/08/06 09:42:51;;;;;;;1999.90;999.90;;;21.70;99.90;;;;;;5050213;28;20510;-82
2021/08/06 09:45:18;;;;;;;1999.90;999.90;;;21.80;99.90;;;;;;5051125;28;20429;-81
2021/08/06 09:47:55;;;;;;;1999.90;999.90;;;22.10;99.90;;;;;;5051368;28;20506;-81
2021/08/06 09:50:33;;;;;;;1999.90;999.90;;;22.30;99.90;;;;;;5067717;28;20380;-81
2021/08/06 09:53:24;;;;;;;1999.90;999.90;;;22.40;99.90;;;;;;5049882;28;20403;-81
2021/08/06 09:56:10;;;;;;;1999.90;999.90;;;22.60;99.90;;;;;;5066943;28;20979;-80
2021/08/06 09:59:12;;;;;;;1999.90;999.90;;;22.70;99.90;;;;;;5059046;28;20851;-80
2021/08/06 10:02:26;;;;;;;1999.90;999.90;;;22.80;99.90;;;;;;5059606;28;20802;-81
2021/08/06 10:05:20;;;;;;;1999.90;999.90;;;22.90;99.90;;;;;;5042493;28;20403;-80
2021/08/06 10:07:54;;;;;;;1999.90;999.90;;;22.90;99.90;;;;;;5061414;28;20790;-80
2021/08/06 10:10:53;;;;;;;1999.90;999.90;;;23.10;99.90;;;;;;5062414;28;20387;-80
2021/08/06 10:13:19;;;;;;;1999.90;999.90;;;23.10;99.90;;;;;;5064492;28;20939;-81
2021/08/06 10:16:18;;;;;;;1999.90;999.90;;;23.30;99.90;;;;;;5041803;28;20411;-80
2021/08/06 10:18:49;;;;;;;1999.90;999.90;;;23.50;99.90;;;;;;5001870;28;20214;-80
2021/08/06 10:21:14;;;;;;;1999.90;999.90;;;23.80;99.90;;;;;;5064793;28;20434;-80
2021/08/06 10:23:49;;;;;;;1999.90;999.90;;;23.60;99.90;;;;;;5065624;28;20875;-80
2021/08/06 10:26:28;;;;;;;1999.90;999.90;;;23.80;99.90;;;;;;5048626;28;20418;-80
2021/08/06 10:29:39;;;;;;;1999.90;999.90;;;24.00;99.90;;;;;;5064962;28;20774;-80
2021/08/06 10:31:42;;;;;;;1999.90;999.90;;;23.80;99.90;;;;;;5056773;28;20421;-80
2021/08/06 10:34:13;;;;;;;1999.90;999.90;;;23.60;99.90;;;;;;5068648;28;20412;-80
2021/08/06 10:36:59;;;;;;;1999.90;999.90;;;23.30;99.90;;;;;;5050500;28;20443;-80
2021/08/06 10:42:54;;;;;;;1999.90;999.90;;;23.00;99.90;;;;;;5067510;28;20374;-80
2021/08/06 10:45:22;;;;;;;1999.90;999.90;;;23.00;99.90;;;;;;5068319;28;20474;-80
2021/08/06 10:48:21;;;;;;;1999.90;999.90;;;23.00;99.90;;;;;;5068183;28;20192;-80
2021/08/06 10:51:12;;;;;;;1999.90;999.90;;;22.90;99.90;;;;;;5064488;28;20506;-80
2021/08/06 10:53:59;;;;;;;1999.90;999.90;;;22.90;99.90;;;;;;5050880;28;20990;-81
2021/08/06 10:56:45;;;;;;;1999.90;999.90;;;22.90;99.90;;;;;;5051140;28;20481;-81
2021/08/06 11:02:50;;;;;;;1999.90;999.90;;;22.90;99.90;;;;;;4982529;28;20422;-81
2021/08/06 11:11:34;;;;;;;1999.90;999.90;;;22.40;99.90;;;;;;5092414;22;20475;-81
2021/08/06 11:20:38;;;;;;;1999.90;999.90;;;23.30;99.90;;;;;;4946725;29;20508;-81
2021/08/06 11:23:21;;;;;;;1999.90;999.90;;;23.80;99.90;;;;;;5037178;28;20770;-81
2021/08/06 11:31:49;;;;;;;1999.90;999.90;;;23.70;99.90;;;;;;5067387;28;20387;-81
2021/08/06 11:34:53;;;;;;;1999.90;999.90;;;23.40;99.90;;;;;;5067133;28;20423;-81
2021/08/06 11:37:55;;;;;;;1999.90;999.90;;;23.00;99.90;;;;;;5053076;28;20508;-80
2021/08/06 11:41:03;;;;;;;1999.90;999.90;;;22.50;99.90;;;;;;5030397;28;20422;-81
2021/08/06 11:43:34;;;;;;;1999.90;999.90;;;22.20;99.90;;;;;;5041218;28;20404;-82
2021/08/06 11:46:25;;;;;;;1999.90;999.90;;;21.70;99.90;;;;;;5039858;28;20392;-81
2021/08/06 11:48:53;;;;;;;1999.90;999.90;;;21.50;99.90;;;;;;5022014;28;20431;-82
2021/08/06 11:51:20;;;;;;;1999.90;999.90;;;21.20;99.90;;;;;;5020877;28;20428;-82
2021/08/06 11:53:46;;;;;;;1999.90;999.90;;;21.10;99.90;;;;;;5038350;28;20487;-82
2021/08/06 11:56:23;;;;;;;1999.90;999.90;;;21.10;99.90;;;;;;5020889;28;20436;-82
2021/08/06 11:58:53;;;;;;;1999.90;999.90;;;21.20;99.90;;;;;;5022615;28;20503;-82
2021/08/06 12:01:25;;;;;;;1999.90;999.90;;;21.20;99.90;;;;;;5039400;28;20415;-82
2021/08/06 12:03:54;;;;;;;1999.90;999.90;;;21.20;99.90;;;;;;5039597;28;20389;-82
2021/08/06 12:06:47;;;;;;;1999.90;999.90;;;21.10;99.90;;;;;;5041047;28;20969;-82
2021/08/06 12:09:51;;;;;;;1999.90;999.90;;;21.10;99.90;;;;;;5036885;28;20424;-81
2021/08/06 12:12:28;;;;;;;1999.90;999.90;;;21.00;99.90;;;;;;4992570;28;20404;-83
2021/08/06 12:14:54;;;;;;;1999.90;999.90;;;21.10;99.90;;;;;;5041681;28;20400;-83
2021/08/06 12:17:20;;;;;;;1999.90;999.90;;;21.20;99.90;;;;;;5041782;28;20481;-83
2021/08/06 12:19:50;;;;;;;1999.90;999.90;;;21.40;99.90;;;;;;5028441;28;20168;-82
2021/08/06 12:22:15;;;;;;;1999.90;999.90;;;21.80;99.90;;;;;;5043291;28;20166;-81
2021/08/06 12:24:41;;;;;;;1999.90;999.90;;;22.30;99.90;;;;;;5042605;28;20769;-81
2021/08/06 12:27:07;;;;;;;1999.90;999.90;;;22.60;99.90;;;;;;5044726;28;20239;-81
2021/08/06 12:29:36;;;;;;;1999.90;999.90;;;22.70;99.90;;;;;;5044536;28;20256;-80
2021/08/06 12:32:19;;;;;;;1999.90;999.90;;;22.80;99.90;;;;;;5045229;28;20172;-80
2021/08/06 12:34:48;;;;;;;1999.90;999.90;;;22.90;99.90;;;;;;5044251;28;20408;-80
2021/08/06 12:37:16;;;;;;;1999.90;999.90;;;22.70;99.90;;;;;;5027161;28;20463;-80
2021/08/06 12:39:52;;;;;;;1999.90;999.90;;;22.60;99.90;;;;;;5044166;28;20431;-80
2021/08/06 12:42:25;;;;;;;1999.90;999.90;;;22.50;99.90;;;;;;5044891;28;20790;-80
2021/08/06 12:45:05;;;;;;;1999.90;999.90;;;22.40;99.90;;;;;;5041674;28;20808;-80
2021/08/06 12:47:44;;;;;;;1999.90;999.90;;;22.30;99.90;;;;;;5022554;28;20432;-80
2021/08/06 12:50:12;;;;;;;1999.90;999.90;;;22.40;99.90;;;;;;5023550;28;20412;-80
2021/08/06 12:52:42;;;;;;;1999.90;999.90;;;22.60;99.90;;;;;;5043362;28;20407;-80
2021/08/06 12:55:08;;;;;;;1999.90;999.90;;;22.70;99.90;;;;;;5025766;28;20456;-80
2021/08/06 12:57:43;;;;;;;1999.90;999.90;;;23.10;99.90;;;;;;5043653;28;20458;-80
2021/08/06 13:00:19;;;;;;;1999.90;999.90;;;23.50;99.90;;;;;;5024521;28;20492;-80
2021/08/06 13:03:03;;;;;;;1999.90;999.90;;;23.80;99.90;;;;;;5042569;28;20392;-80
2021/08/06 13:05:30;;;;;;;1999.90;999.90;;;24.00;99.90;;;;;;5025970;28;20431;-80
2021/08/06 13:08:09;;;;;;;1999.90;999.90;;;24.10;99.90;;;;;;5042425;28;20432;-80
2021/08/06 13:10:35;;;;;;;1999.90;999.90;;;24.20;99.90;;;;;;5024951;28;20403;-80
2021/08/06 13:13:01;;;;;;;1999.90;999.90;;;23.80;99.90;;;;;;5042189;28;20400;-80
2021/08/06 13:15:26;;;;;;;1999.90;999.90;;;23.60;99.90;;;;;;5044518;28;20166;-81
2021/08/06 13:17:53;;;;;;;1999.90;999.90;;;23.50;99.90;;;;;;5044716;28;20200;-80
2021/08/06 13:20:19;;;;;;;1999.90;999.90;;;23.40;99.90;;;;;;5025496;28;20251;-81
2021/08/06 13:22:45;;;;;;;1999.90;999.90;;;23.40;99.90;;;;;;5043237;28;20397;-81
2021/08/06 13:25:13;;;;;;;1999.90;999.90;;;23.30;99.90;;;;;;5043965;28;20408;-81